Time;durP1;ratioP1;P1;durP2;ratioP2;P2;SDS_P1;SDS_P2;PMS_P1;PMS_P2;Temp;Humidity;BMP_temperature;BMP_pressure;BME280_temperature;BME280_humidity;BME280_pressure;Samples;Min_cycle;Max_cycle;Signal;HPM_P1;HPM_P2
2023/06/18 00:00:39;;;;;;;;;;;;;;;18.05;50.83;98080.66;7357888;19;19938;-75
2023/06/18 00:03:06;;;;;;;;;;;;;;;18.06;51.05;98084.16;7365919;19;19918;-75
2023/06/18 00:05:33;;;;;;;;;;;;;;;18.06;51.09;98084.16;7374036;19;20023;-76
2023/06/18 00:08:00;;;;;;;;;;;;;;;18.06;50.57;98076.97;7362824;19;20421;-75
2023/06/18 00:10:26;;;;;;;;;;;;;;;17.84;52.82;98081.75;7368166;19;19919;-76
2023/06/18 00:12:53;;;;;;;;;;;;;;;17.82;52.89;98074.97;7368978;19;19922;-76
2023/06/18 00:15:19;;;;;;;;;;;;;;;17.76;53.50;98076.59;7369361;19;19922;-75
2023/06/18 00:17:46;;;;;;;;;;;;;;;17.75;53.09;98083.00;7370785;19;19929;-75
2023/06/18 00:20:13;;;;;;;;;;;;;;;17.76;51.85;98079.28;7366473;19;20259;-76
2023/06/18 00:22:41;;;;;;;;;;;;;;;17.58;53.64;98073.75;7369884;19;19922;-76
2023/06/18 00:25:08;;;;;;;;;;;;;;;17.46;54.62;98074.38;7366883;19;19943;-76
2023/06/18 00:27:35;;;;;;;;;;;;;;;17.50;53.79;98069.44;7371138;19;19933;-76
2023/06/18 00:30:04;;;;;;;;;;;;;;;17.54;52.74;98073.34;7366027;19;19915;-75
2023/06/18 00:32:31;;;;;;;;;;;;;;;17.46;54.32;98071.72;7368993;19;19915;-75
2023/06/18 00:35:00;;;;;;;;;;;;;;;17.51;52.75;98058.53;7368915;19;19919;-76
2023/06/18 00:37:27;;;;;;;;;;;;;;;17.47;52.78;98059.97;7368302;19;19922;-75
2023/06/18 00:39:55;;;;;;;;;;;;;;;17.52;53.02;98065.53;7371968;19;19931;-76
2023/06/18 00:42:21;;;;;;;;;;;;;;;17.31;54.09;98063.06;7365976;19;19915;-75
2023/06/18 00:44:48;;;;;;;;;;;;;;;17.34;54.59;98058.13;7365707;19;19928;-76
2023/06/18 00:47:15;;;;;;;;;;;;;;;17.41;53.91;98063.47;7367523;19;19930;-76
2023/06/18 00:49:42;;;;;;;;;;;;;;;17.44;54.33;98062.25;7368615;19;19914;-75
2023/06/18 00:52:15;;;;;;;;;;;;;;;17.50;53.15;98061.41;7364468;19;19914;-75
2023/06/18 00:54:42;;;;;;;;;;;;;;;17.26;54.58;98060.19;7367441;19;19974;-76
2023/06/18 00:57:13;;;;;;;;;;;;;;;17.39;52.86;98062.03;7365799;19;19931;-76
2023/06/18 00:59:44;;;;;;;;;;;;;;;17.47;53.31;98059.97;7366764;19;19947;-76
2023/06/18 01:02:12;;;;;;;;;;;;;;;17.37;53.32;98059.56;7362593;19;19930;-76
2023/06/18 01:04:42;;;;;;;;;;;;;;;17.17;54.66;98058.75;7370826;19;19971;-76
2023/06/18 01:07:13;;;;;;;;;;;;;;;17.11;54.46;98055.03;7364897;19;19919;-75
2023/06/18 01:09:44;;;;;;;;;;;;;;;17.11;54.42;98052.38;7366443;19;20679;-76
2023/06/18 01:12:10;;;;;;;;;;;;;;;17.09;54.78;98051.78;7362856;19;20480;-75
2023/06/18 01:14:37;;;;;;;;;;;;;;;16.92;54.88;98051.34;7370050;19;19911;-75
2023/06/18 01:17:04;;;;;;;;;;;;;;;17.03;55.34;98052.56;7362410;19;19956;-75
2023/06/18 01:19:40;;;;;;;;;;;;;;;17.03;53.75;98050.72;7369557;19;20296;-76
2023/06/18 01:22:11;;;;;;;;;;;;;;;17.06;53.79;98055.69;7362291;19;19914;-76
2023/06/18 01:24:38;;;;;;;;;;;;;;;17.14;53.29;98057.34;7368900;19;19926;-76
2023/06/18 01:27:05;;;;;;;;;;;;;;;17.01;53.83;98055.47;7363138;19;19925;-76
2023/06/18 01:29:34;;;;;;;;;;;;;;;17.00;53.90;98064.50;7369965;19;19931;-76
2023/06/18 01:32:00;;;;;;;;;;;;;;;17.01;54.19;98062.63;7366879;19;19918;-76
2023/06/18 01:34:27;;;;;;;;;;;;;;;16.96;54.70;98063.28;7367063;19;19927;-75
2023/06/18 01:37:03;;;;;;;;;;;;;;;16.95;54.07;98056.28;7367659;19;19958;-74
2023/06/18 01:39:35;;;;;;;;;;;;;;;16.75;56.01;98058.09;7362879;19;19919;-73
2023/06/18 01:42:07;;;;;;;;;;;;;;;16.67;56.62;98051.91;7365682;19;19985;-74
2023/06/18 01:44:34;;;;;;;;;;;;;;;16.65;56.69;98045.94;7366662;19;19949;-74
2023/06/18 01:47:01;;;;;;;;;;;;;;;16.82;56.13;98048.25;7367700;19;19918;-73
2023/06/18 01:49:28;;;;;;;;;;;;;;;16.86;55.86;98047.63;7366909;19;19926;-73
2023/06/18 01:51:55;;;;;;;;;;;;;;;16.93;55.07;98052.16;7365609;19;19927;-74
2023/06/18 01:54:23;;;;;;;;;;;;;;;17.07;54.25;98049.28;7365905;19;19968;-73
2023/06/18 01:56:50;;;;;;;;;;;;;;;16.83;54.45;98049.91;7368221;19;19931;-73
2023/06/18 01:59:16;;;;;;;;;;;;;;;16.80;55.48;98051.13;7361883;19;19922;-73
2023/06/18 02:01:43;;;;;;;;;;;;;;;16.84;54.05;98043.53;7366527;19;20448;-74
2023/06/18 02:04:10;;;;;;;;;;;;;;;16.76;55.75;98046.34;7365352;19;19959;-74
2023/06/18 02:06:37;;;;;;;;;;;;;;;16.68;55.64;98042.03;7366179;19;20323;-72
2023/06/18 02:09:03;;;;;;;;;;;;;;;16.60;56.05;98050.22;7362408;19;20267;-74
2023/06/18 02:11:30;;;;;;;;;;;;;;;16.62;56.50;98049.00;7372260;19;19914;-73
2023/06/18 02:13:57;;;;;;;;;;;;;;;16.59;56.43;98048.59;7370781;19;19924;-73
2023/06/18 02:16:24;;;;;;;;;;;;;;;16.72;55.48;98050.44;7366976;19;19953;-72
2023/06/18 02:18:50;;;;;;;;;;;;;;;16.66;55.28;98058.25;7375509;19;22688;-72
2023/06/18 02:21:17;;;;;;;;;;;;;;;16.58;54.83;98057.63;7367555;19;19946;-72
2023/06/18 02:23:45;;;;;;;;;;;;;;;16.45;55.55;98059.22;7370645;19;19963;-73
2023/06/18 02:26:13;;;;;;;;;;;;;;;16.33;55.78;98068.03;7373217;19;19923;-73
2023/06/18 02:28:40;;;;;;;;;;;;;;;16.26;56.10;98064.50;7377177;19;19915;-72
2023/06/18 02:31:07;;;;;;;;;;;;;;;16.19;56.13;98059.97;7371291;19;19915;-74
2023/06/18 02:33:34;;;;;;;;;;;;;;;16.14;57.06;98057.06;7372903;19;19919;-73
2023/06/18 02:36:01;;;;;;;;;;;;;;;15.95;59.08;98057.78;7373492;19;20800;-73
2023/06/18 02:38:28;;;;;;;;;;;;;;;16.16;58.51;98048.84;7343733;19;19994;-73
2023/06/18 02:40:55;;;;;;;;;;;;;;;16.29;57.44;98048.09;7367329;19;20341;-73
2023/06/18 02:43:22;;;;;;;;;;;;;;;16.32;56.83;98053.03;7368877;19;20257;-74
2023/06/18 02:45:51;;;;;;;;;;;;;;;16.42;56.70;98053.47;7372289;19;19914;-73
2023/06/18 02:48:18;;;;;;;;;;;;;;;16.44;56.91;98052.25;7366236;19;19930;-72
2023/06/18 02:50:44;;;;;;;;;;;;;;;16.44;56.66;98056.78;7373761;19;19915;-73
2023/06/18 02:53:11;;;;;;;;;;;;;;;16.43;57.26;98053.28;7366765;19;20448;-73
2023/06/18 02:55:41;;;;;;;;;;;;;;;16.52;56.55;98050.41;7367778;19;20529;-73
2023/06/18 02:58:19;;;;;;;;;;;;;;;16.53;56.64;98047.53;7365019;19;19922;-73
2023/06/18 03:00:46;;;;;;;;;;;;;;;16.48;56.16;98051.84;7371471;19;20452;-73
2023/06/18 03:03:14;;;;;;;;;;;;;;;16.47;56.29;98056.34;7366583;19;20488;-73
2023/06/18 03:05:44;;;;;;;;;;;;;;;16.49;56.38;98056.16;7371432;19;19930;-74
2023/06/18 03:08:13;;;;;;;;;;;;;;;16.43;58.13;98055.13;7367718;19;19926;-73
2023/06/18 03:10:42;;;;;;;;;;;;;;;16.43;56.52;98063.97;7372706;19;19918;-74
2023/06/18 03:13:09;;;;;;;;;;;;;;;16.51;56.18;98070.97;7364146;19;19923;-73
2023/06/18 03:15:43;;;;;;;;;;;;;;;16.38;56.48;98068.25;7370067;19;19923;-73
2023/06/18 03:18:12;;;;;;;;;;;;;;;16.40;56.91;98064.38;7366172;19;19994;-72
2023/06/18 03:20:39;;;;;;;;;;;;;;;16.46;57.61;98066.22;7369528;19;19934;-72
2023/06/18 03:23:06;;;;;;;;;;;;;;;16.51;56.85;98068.28;7369351;19;19914;-73
2023/06/18 03:25:34;;;;;;;;;;;;;;;16.38;56.42;98066.41;7371245;19;19923;-74
2023/06/18 03:28:00;;;;;;;;;;;;;;;16.43;56.29;98065.81;7370299;19;19918;-73
2023/06/18 03:30:32;;;;;;;;;;;;;;;16.39;56.61;98062.69;7362372;19;20325;-73
2023/06/18 03:33:02;;;;;;;;;;;;;;;16.35;56.24;98061.47;7368079;19;19911;-73
2023/06/18 03:35:32;;;;;;;;;;;;;;;16.21;56.06;98063.25;7367117;19;20038;-73
2023/06/18 03:37:59;;;;;;;;;;;;;;;15.99;57.23;98065.22;7372986;19;19918;-73
2023/06/18 03:40:26;;;;;;;;;;;;;;;16.03;58.08;98065.63;7369340;19;19918;-74
2023/06/18 03:42:53;;;;;;;;;;;;;;;16.19;56.45;98065.31;7371501;19;19926;-73
2023/06/18 03:45:22;;;;;;;;;;;;;;;16.22;55.50;98072.09;7368065;19;19944;-73
2023/06/18 03:47:50;;;;;;;;;;;;;;;16.15;56.17;98073.91;7366526;19;20548;-72
2023/06/18 03:50:19;;;;;;;;;;;;;;;15.99;57.02;98077.75;7367972;19;19914;-73
2023/06/18 03:52:47;;;;;;;;;;;;;;;16.16;56.69;98073.69;7368788;19;19945;-73
2023/06/18 03:55:15;;;;;;;;;;;;;;;16.27;55.94;98080.31;7368931;19;20383;-73
2023/06/18 03:57:43;;;;;;;;;;;;;;;16.19;56.30;98078.66;7372779;19;19930;-72
2023/06/18 04:00:10;;;;;;;;;;;;;;;16.01;57.46;98073.03;7362256;19;19944;-73
2023/06/18 04:02:42;;;;;;;;;;;;;;;16.18;57.42;98081.50;7363436;19;19939;-73
2023/06/18 04:05:16;;;;;;;;;;;;;;;16.40;56.84;98087.53;7364435;19;19923;-74
2023/06/18 04:07:43;;;;;;;;;;;;;;;16.58;55.80;98079.81;7373610;19;19934;-74
2023/06/18 04:10:10;;;;;;;;;;;;;;;16.68;55.88;98090.09;7368122;19;19915;-72
2023/06/18 04:12:36;;;;;;;;;;;;;;;16.70;56.17;98085.38;7364971;19;19918;-73
2023/06/18 04:15:03;;;;;;;;;;;;;;;16.76;56.43;98094.44;7368274;19;19915;-74
2023/06/18 04:17:38;;;;;;;;;;;;;;;16.79;56.26;98078.03;7366993;19;20316;-72
2023/06/18 04:20:05;;;;;;;;;;;;;;;16.81;55.82;98076.81;7367849;19;19926;-74
2023/06/18 04:22:32;;;;;;;;;;;;;;;16.82;54.10;98082.97;7363588;19;19923;-73
2023/06/18 04:24:59;;;;;;;;;;;;;;;16.83;54.32;98087.31;7371598;19;19956;-73
2023/06/18 04:27:26;;;;;;;;;;;;;;;16.85;54.00;98085.22;7367972;19;19923;-73
2023/06/18 04:29:53;;;;;;;;;;;;;;;16.84;55.46;98087.09;7369070;19;19918;-74
2023/06/18 04:32:20;;;;;;;;;;;;;;;16.89;55.40;98087.31;7362833;19;19914;-74
2023/06/18 04:34:49;;;;;;;;;;;;;;;16.98;54.95;98081.75;7368541;19;19922;-74
2023/06/18 04:37:18;;;;;;;;;;;;;;;16.97;56.37;98083.63;7358218;19;19978;-73
2023/06/18 04:39:46;;;;;;;;;;;;;;;17.18;55.87;98087.13;7369828;19;19931;-74
2023/06/18 04:42:12;;;;;;;;;;;;;;;17.34;54.15;98082.19;7362658;19;21169;-74
2023/06/18 04:44:39;;;;;;;;;;;;;;;17.50;53.46;98072.91;7372511;19;19923;-74
2023/06/18 04:47:06;;;;;;;;;;;;;;;17.72;52.65;98080.69;7367918;19;19923;-74
2023/06/18 04:49:34;;;;;;;;;;;;;;;17.86;52.85;98078.88;7368325;19;19910;-74
2023/06/18 04:52:01;;;;;;;;;;;;;;;18.01;52.06;98075.94;7366247;19;19927;-72
2023/06/18 04:54:27;;;;;;;;;;;;;;;17.96;53.68;98077.41;7362867;19;19933;-74
2023/06/18 04:56:57;;;;;;;;;;;;;;;18.11;52.57;98068.28;7370270;19;19923;-72
2023/06/18 04:59:24;;;;;;;;;;;;;;;18.28;51.78;98074.00;7366929;19;19924;-74
2023/06/18 05:01:51;;;;;;;;;;;;;;;18.33;52.98;98066.16;7365228;19;19923;-72
2023/06/18 05:04:18;;;;;;;;;;;;;;;18.46;51.83;98074.13;7361162;19;20341;-73
2023/06/18 05:06:45;;;;;;;;;;;;;;;18.53;52.26;98069.53;7370327;19;19919;-72
2023/06/18 05:09:12;;;;;;;;;;;;;;;18.60;51.21;98069.53;7364803;19;19931;-73
2023/06/18 05:11:40;;;;;;;;;;;;;;;18.61;50.88;98071.97;7370604;19;20522;-72
2023/06/18 05:14:06;;;;;;;;;;;;;;;18.65;51.25;98064.34;7372644;19;19923;-75
2023/06/18 05:16:33;;;;;;;;;;;;;;;18.69;52.03;98076.25;7368113;19;19974;-74
2023/06/18 05:19:02;;;;;;;;;;;;;;;18.70;51.50;98067.19;7365145;19;19982;-74
2023/06/18 05:21:29;;;;;;;;;;;;;;;18.72;51.15;98073.16;7367150;19;19919;-74
2023/06/18 05:23:56;;;;;;;;;;;;;;;18.72;52.15;98069.66;7374495;19;19918;-73
2023/06/18 05:26:23;;;;;;;;;;;;;;;18.75;51.08;98069.28;7366164;19;20284;-74
2023/06/18 05:28:50;;;;;;;;;;;;;;;18.78;51.66;98074.19;7367352;19;19990;-72
2023/06/18 05:31:18;;;;;;;;;;;;;;;18.81;50.25;98063.84;7366491;19;19919;-73
2023/06/18 05:33:45;;;;;;;;;;;;;;;18.82;51.22;98065.47;7373110;19;19994;-73
2023/06/18 05:36:12;;;;;;;;;;;;;;;18.86;51.18;98077.44;7364598;19;20386;-74
2023/06/18 05:38:39;;;;;;;;;;;;;;;18.94;50.38;98068.31;7368346;19;19907;-74
2023/06/18 05:41:05;;;;;;;;;;;;;;;19.04;49.76;98073.19;7365133;19;19986;-74
2023/06/18 05:43:32;;;;;;;;;;;;;;;19.06;50.75;98076.47;7359443;19;19926;-75
2023/06/18 05:46:01;;;;;;;;;;;;;;;19.17;50.30;98074.94;7373795;19;19923;-74
2023/06/18 05:48:28;;;;;;;;;;;;;;;19.27;50.12;98077.94;7372913;19;19940;-74
2023/06/18 05:51:05;;;;;;;;;;;;;;;19.38;50.32;98079.09;7373588;19;19974;-74
2023/06/18 05:53:33;;;;;;;;;;;;;;;19.42;50.45;98077.63;7369422;19;19926;-74
2023/06/18 05:56:00;;;;;;;;;;;;;;;19.53;50.20;98079.59;7370333;19;19929;-73
2023/06/18 05:58:27;;;;;;;;;;;;;;;19.59;48.91;98083.25;7371501;19;20025;-74
2023/06/18 06:00:53;;;;;;;;;;;;;;;19.68;48.00;98082.78;7371207;19;19934;-74
2023/06/18 06:03:20;;;;;;;;;;;;;;;19.79;47.65;98075.03;7373767;19;19934;-74
2023/06/18 06:05:47;;;;;;;;;;;;;;;19.82;48.12;98080.78;7373199;19;19918;-73
2023/06/18 06:08:14;;;;;;;;;;;;;;;19.85;49.47;98076.81;7366335;19;19925;-72
2023/06/18 06:10:45;;;;;;;;;;;;;;;19.94;48.68;98072.81;7373181;19;19947;-74
2023/06/18 06:13:11;;;;;;;;;;;;;;;20.09;47.79;98072.44;7369273;19;19918;-74
2023/06/18 06:15:40;;;;;;;;;;;;;;;20.24;48.01;98074.75;7370197;19;19918;-74
2023/06/18 06:18:07;;;;;;;;;;;;;;;20.49;46.60;98080.03;7367484;19;19979;-72
2023/06/18 06:20:34;;;;;;;;;;;;;;;20.72;45.70;98082.84;7372534;19;19929;-74
2023/06/18 06:23:00;;;;;;;;;;;;;;;20.99;45.73;98085.97;7372764;19;19923;-75
2023/06/18 06:25:28;;;;;;;;;;;;;;;21.43;46.10;98075.78;7372172;19;19941;-74
2023/06/18 06:27:57;;;;;;;;;;;;;;;21.86;44.56;98077.28;7371230;19;19922;-74
2023/06/18 06:30:23;;;;;;;;;;;;;;;22.09;43.13;98084.53;7369847;19;19952;-75
2023/06/18 06:32:56;;;;;;;;;;;;;;;22.23;43.88;98077.03;7372370;19;19934;-75
2023/06/18 06:35:23;;;;;;;;;;;;;;;22.48;42.94;98074.00;7367864;19;19949;-74
2023/06/18 06:37:51;;;;;;;;;;;;;;;22.63;42.17;98073.50;7373993;19;19927;-74
2023/06/18 06:40:18;;;;;;;;;;;;;;;22.68;42.43;98081.69;7371948;19;19930;-74
2023/06/18 06:42:45;;;;;;;;;;;;;;;22.65;42.85;98078.66;7372141;19;20807;-75
2023/06/18 06:45:24;;;;;;;;;;;;;;;22.58;42.24;98073.41;7369601;19;19935;-74
2023/06/18 06:48:01;;;;;;;;;;;;;;;22.56;41.76;98072.81;7371054;19;19919;-73
2023/06/18 06:50:40;;;;;;;;;;;;;;;22.48;42.29;98081.28;7372383;19;19911;-75
2023/06/18 06:53:19;;;;;;;;;;;;;;;22.43;41.79;98078.50;7364626;19;19923;-73
2023/06/18 06:55:46;;;;;;;;;;;;;;;22.46;42.50;98070.75;7371476;19;19926;-74
2023/06/18 06:58:16;;;;;;;;;;;;;;;22.58;42.58;98081.47;7368028;19;19923;-72
2023/06/18 07:00:42;;;;;;;;;;;;;;;22.69;42.38;98080.63;7371760;19;19979;-74
2023/06/18 07:03:09;;;;;;;;;;;;;;;22.82;41.20;98074.09;7372326;19;19926;-74
2023/06/18 07:05:36;;;;;;;;;;;;;;;22.90;40.15;98070.22;7372407;19;20648;-74
2023/06/18 07:08:05;;;;;;;;;;;;;;;22.99;41.71;98080.41;7374430;19;19990;-74
2023/06/18 07:10:32;;;;;;;;;;;;;;;23.09;40.39;98079.75;7370897;19;19939;-74
2023/06/18 07:12:59;;;;;;;;;;;;;;;23.07;39.95;98087.28;7371447;19;19923;-75
2023/06/18 07:15:25;;;;;;;;;;;;;;;23.17;40.50;98083.91;7368626;19;19918;-74
2023/06/18 07:17:52;;;;;;;;;;;;;;;23.30;38.80;98077.38;7374667;19;19928;-74
2023/06/18 07:20:19;;;;;;;;;;;;;;;23.26;39.86;98070.84;7368412;19;19961;-74
2023/06/18 07:22:46;;;;;;;;;;;;;;;23.35;39.98;98078.28;7370913;19;19930;-74
2023/06/18 07:25:13;;;;;;;;;;;;;;;23.55;39.98;98080.50;7373353;19;19921;-75
2023/06/18 07:27:39;;;;;;;;;;;;;;;23.66;40.07;98078.75;7370888;19;19930;-74
2023/06/18 07:30:06;;;;;;;;;;;;;;;23.74;38.68;98077.56;7372260;19;22358;-73
2023/06/18 07:32:33;;;;;;;;;;;;;;;23.93;38.59;98080.78;7363715;19;19923;-75
2023/06/18 07:35:00;;;;;;;;;;;;;;;23.97;38.71;98074.66;7365579;19;20014;-74
2023/06/18 07:37:27;;;;;;;;;;;;;;;23.95;39.60;98076.78;7365333;19;19919;-75
2023/06/18 07:39:54;;;;;;;;;;;;;;;24.06;38.32;98073.13;7368909;19;19918;-75
2023/06/18 07:42:21;;;;;;;;;;;;;;;24.23;39.77;98075.78;7363042;19;19942;-75
2023/06/18 07:44:48;;;;;;;;;;;;;;;24.44;37.21;98068.78;7372781;19;19927;-75
2023/06/18 07:47:14;;;;;;;;;;;;;;;24.48;37.95;98067.19;7365887;19;19934;-75
2023/06/18 07:49:41;;;;;;;;;;;;;;;24.59;38.11;98068.13;7365052;19;19982;-75
2023/06/18 07:52:08;;;;;;;;;;;;;;;24.71;38.37;98070.69;7369589;19;19923;-73
2023/06/18 07:54:35;;;;;;;;;;;;;;;24.83;37.12;98068.66;7371006;19;19921;-75
2023/06/18 07:57:02;;;;;;;;;;;;;;;24.99;35.43;98069.63;7373079;19;19918;-75
2023/06/18 07:59:28;;;;;;;;;;;;;;;25.07;37.42;98066.44;7362857;19;19921;-75
2023/06/18 08:01:56;;;;;;;;;;;;;;;25.09;38.04;98071.59;7371416;19;19934;-75
2023/06/18 08:04:23;;;;;;;;;;;;;;;25.15;37.59;98074.13;7365496;19;19919;-75
2023/06/18 08:06:50;;;;;;;;;;;;;;;25.20;37.22;98065.22;7370605;19;20266;-73
2023/06/18 08:09:17;;;;;;;;;;;;;;;25.45;36.49;98066.50;7372403;19;19927;-75
2023/06/18 08:11:45;;;;;;;;;;;;;;;25.46;37.32;98055.41;7371352;19;19930;-74
2023/06/18 08:14:12;;;;;;;;;;;;;;;25.70;36.10;98055.00;7366728;19;19923;-74
2023/06/18 08:16:39;;;;;;;;;;;;;;;25.79;37.68;98056.97;7369797;19;21275;-74
2023/06/18 08:19:05;;;;;;;;;;;;;;;25.77;37.39;98061.03;7372233;19;19929;-75
2023/06/18 08:21:32;;;;;;;;;;;;;;;25.89;35.27;98063.56;7362739;19;19918;-74
2023/06/18 08:23:59;;;;;;;;;;;;;;;26.22;33.46;98057.75;7374657;19;20361;-74
2023/06/18 08:26:26;;;;;;;;;;;;;;;26.38;35.44;98055.09;7369358;19;20012;-74
2023/06/18 08:28:52;;;;;;;;;;;;;;;26.52;34.22;98055.47;7370635;19;19936;-74
2023/06/18 08:31:20;;;;;;;;;;;;;;;26.69;34.28;98056.03;7368174;19;19926;-74
2023/06/18 08:33:48;;;;;;;;;;;;;;;26.59;37.61;98042.44;7373490;19;19929;-73
2023/06/18 08:36:14;;;;;;;;;;;;;;;26.86;34.01;98051.19;7373139;19;19926;-75
2023/06/18 08:38:41;;;;;;;;;;;;;;;26.84;35.79;98050.63;7367280;19;19929;-73
2023/06/18 08:41:09;;;;;;;;;;;;;;;27.08;34.51;98053.66;7371729;19;20440;-74
2023/06/18 08:43:37;;;;;;;;;;;;;;;27.04;33.32;98044.44;7365256;19;19926;-74
2023/06/18 08:46:10;;;;;;;;;;;;;;;27.32;34.04;98042.28;7370388;19;19919;-72
2023/06/18 08:48:41;;;;;;;;;;;;;;;27.39;33.99;98039.28;7366454;19;19926;-75
2023/06/18 08:51:08;;;;;;;;;;;;;;;27.35;33.93;98042.53;7370548;19;19919;-75
2023/06/18 08:53:40;;;;;;;;;;;;;;;27.42;30.70;98036.84;7366211;19;19974;-74
2023/06/18 08:56:07;;;;;;;;;;;;;;;27.72;31.21;98043.28;7371508;19;21900;-73
2023/06/18 08:58:38;;;;;;;;;;;;;;;27.69;31.09;98039.22;7368783;19;20006;-71
2023/06/18 09:01:05;;;;;;;;;;;;;;;27.96;29.24;98036.22;7375621;19;19923;-73
2023/06/18 09:03:32;;;;;;;;;;;;;;;28.12;29.44;98030.69;7379522;19;19914;-72
2023/06/18 09:05:59;;;;;;;;;;;;;;;28.35;29.20;98026.50;7386356;19;19914;-74
2023/06/18 09:08:25;;;;;;;;;;;;;;;28.49;28.98;98043.06;7364388;19;19947;-74
2023/06/18 09:10:52;;;;;;;;;;;;;;;28.48;29.53;98036.00;7370078;19;19980;-73
2023/06/18 09:13:19;;;;;;;;;;;;;;;28.67;28.08;98026.91;7364122;19;19907;-73
2023/06/18 09:15:46;;;;;;;;;;;;;;;28.59;27.83;98022.03;7362415;19;19950;-73
2023/06/18 09:18:12;;;;;;;;;;;;;;;29.03;26.67;98017.66;7364538;19;19923;-74
2023/06/18 09:20:39;;;;;;;;;;;;;;;29.28;25.63;98016.66;7359162;19;19933;-73
2023/06/18 09:23:08;;;;;;;;;;;;;;;29.37;25.94;98019.59;7369249;19;19915;-74
2023/06/18 09:25:35;;;;;;;;;;;;;;;29.24;26.68;98026.50;7363886;19;21196;-72
2023/06/18 09:28:02;;;;;;;;;;;;;;;29.54;24.79;98028.13;7372481;19;19911;-75
2023/06/18 09:30:29;;;;;;;;;;;;;;;29.48;25.75;98021.13;7364453;19;19923;-73
2023/06/18 09:32:59;;;;;;;;;;;;;;;29.61;26.46;98017.72;7364965;19;20356;-74
2023/06/18 09:35:27;;;;;;;;;;;;;;;29.68;25.60;98015.50;7366290;19;20006;-74
2023/06/18 09:37:53;;;;;;;;;;;;;;;29.58;25.30;98010.09;7360672;19;20629;-74
2023/06/18 09:40:21;;;;;;;;;;;;;;;29.56;25.52;98006.84;7366908;19;19919;-73
2023/06/18 09:42:49;;;;;;;;;;;;;;;29.66;25.47;98005.97;7364542;19;20347;-73
2023/06/18 09:45:16;;;;;;;;;;;;;;;29.69;25.16;98003.47;7367393;19;19930;-72
2023/06/18 09:47:43;;;;;;;;;;;;;;;29.63;26.44;97996.44;7364906;19;22011;-75
2023/06/18 09:50:11;;;;;;;;;;;;;;;29.52;25.90;98006.63;7368191;19;20364;-72
2023/06/18 09:52:40;;;;;;;;;;;;;;;29.51;26.35;98004.19;7358069;19;19929;-73
2023/06/18 09:55:20;;;;;;;;;;;;;;;29.34;28.05;98004.63;7364456;19;19923;-73
2023/06/18 09:57:50;;;;;;;;;;;;;;;29.54;24.95;97998.97;7359666;19;19927;-75
2023/06/18 10:00:17;;;;;;;;;;;;;;;29.65;24.06;97994.25;7366274;19;19922;-73
2023/06/18 10:02:44;;;;;;;;;;;;;;;29.70;22.82;97994.22;7364485;19;19930;-75
2023/06/18 10:05:10;;;;;;;;;;;;;;;29.59;23.14;97992.63;7368334;19;20275;-73
2023/06/18 10:07:39;;;;;;;;;;;;;;;29.71;24.42;97993.09;7359700;19;19926;-73
2023/06/18 10:10:08;;;;;;;;;;;;;;;29.86;22.38;97989.38;7367798;19;20734;-75
2023/06/18 10:12:35;;;;;;;;;;;;;;;29.88;23.02;97991.81;7358287;19;19919;-73
2023/06/18 10:15:02;;;;;;;;;;;;;;;30.03;24.19;97983.44;7365984;19;19922;-74
2023/06/18 10:17:33;;;;;;;;;;;;;;;29.92;24.29;97984.69;7362190;19;19919;-74
2023/06/18 10:20:04;;;;;;;;;;;;;;;29.87;23.04;97973.84;7368595;19;19931;-72
2023/06/18 10:22:36;;;;;;;;;;;;;;;29.80;24.14;97971.44;7361109;19;19986;-73
2023/06/18 10:25:04;;;;;;;;;;;;;;;29.87;20.79;97974.63;7364447;19;19915;-73
2023/06/18 10:27:31;;;;;;;;;;;;;;;29.79;21.13;97982.66;7359549;19;20301;-73
2023/06/18 10:29:58;;;;;;;;;;;;;;;29.85;21.99;97976.84;7365912;19;19929;-74
2023/06/18 10:32:25;;;;;;;;;;;;;;;29.75;23.63;97977.78;7368694;19;19937;-73
2023/06/18 10:34:52;;;;;;;;;;;;;;;29.66;23.51;97973.25;7376188;19;19944;-73
2023/06/18 10:37:19;;;;;;;;;;;;;;;29.68;22.64;97971.88;7374100;19;19927;-73
2023/06/18 10:39:48;;;;;;;;;;;;;;;29.62;24.57;97967.56;7374177;19;19929;-74
2023/06/18 10:42:15;;;;;;;;;;;;;;;29.61;24.72;97965.09;7370625;19;19934;-72
2023/06/18 10:44:57;;;;;;;;;;;;;;;29.39;24.65;97971.06;7365386;19;19927;-73
2023/06/18 10:47:27;;;;;;;;;;;;;;;29.24;24.83;97967.38;7371329;19;19918;-73
2023/06/18 10:50:00;;;;;;;;;;;;;;;29.17;25.02;97977.00;7375953;19;19939;-74
2023/06/18 10:52:27;;;;;;;;;;;;;;;29.09;24.80;97970.25;7367428;19;20379;-73
2023/06/18 10:55:04;;;;;;;;;;;;;;;29.06;25.65;97965.38;7375216;19;19934;-72
2023/06/18 10:57:31;;;;;;;;;;;;;;;29.02;23.30;97958.88;7370253;19;20238;-74
2023/06/18 10:59:58;;;;;;;;;;;;;;;29.05;25.18;97959.13;7372686;19;19922;-73
2023/06/18 11:02:34;;;;;;;;;;;;;;;28.97;25.32;97965.16;7368642;19;19926;-74
2023/06/18 11:05:02;;;;;;;;;;;;;;;29.01;23.18;97957.22;7369830;19;19923;-73
2023/06/18 11:07:30;;;;;;;;;;;;;;;29.31;25.01;97954.25;7368105;19;19934;-73
2023/06/18 11:09:58;;;;;;;;;;;;;;;29.42;23.47;97954.16;7371787;19;20353;-73
2023/06/18 11:12:29;;;;;;;;;;;;;;;29.36;23.21;97952.56;7374107;19;19927;-74
2023/06/18 11:15:17;;;;;;;;;;;;;;;29.45;22.14;97948.13;7375458;19;19927;-74
2023/06/18 11:17:44;;;;;;;;;;;;;;;29.38;22.63;97940.25;7367368;19;19922;-73
2023/06/18 11:20:12;;;;;;;;;;;;;;;29.45;24.23;97935.28;7371203;19;20401;-74
2023/06/18 11:22:40;;;;;;;;;;;;;;;29.44;22.53;97928.22;7363751;19;19926;-73
2023/06/18 11:25:07;;;;;;;;;;;;;;;29.48;23.55;97931.97;7376612;19;19937;-74
2023/06/18 11:27:33;;;;;;;;;;;;;;;29.54;22.50;97936.28;7371201;19;20659;-74
2023/06/18 11:30:00;;;;;;;;;;;;;;;29.59;23.63;97924.50;7378081;19;19923;-72
2023/06/18 11:32:27;;;;;;;;;;;;;;;29.60;24.59;97920.69;7371734;19;20970;-75
2023/06/18 11:34:54;;;;;;;;;;;;;;;29.68;23.32;97914.63;7373586;19;19918;-72
2023/06/18 11:37:23;;;;;;;;;;;;;;;29.48;25.36;97915.63;7370885;19;20010;-75
2023/06/18 11:39:50;;;;;;;;;;;;;;;29.41;23.37;97917.06;7363875;19;19914;-74
2023/06/18 11:42:19;;;;;;;;;;;;;;;29.41;24.13;97917.06;7375724;19;20399;-73
2023/06/18 11:44:50;;;;;;;;;;;;;;;29.15;25.42;97913.81;7371000;19;20341;-72
2023/06/18 11:47:17;;;;;;;;;;;;;;;29.24;24.25;97909.38;7376515;19;19921;-73
2023/06/18 11:49:44;;;;;;;;;;;;;;;29.43;22.21;97902.06;7366815;19;20545;-76
2023/06/18 11:52:11;;;;;;;;;;;;;;;29.41;24.41;97903.44;7372031;19;19922;-73
2023/06/18 11:54:41;;;;;;;;;;;;;;;29.39;23.93;97900.22;7368151;19;19934;-75
2023/06/18 11:57:11;;;;;;;;;;;;;;;29.23;24.34;97902.31;7372514;19;19925;-73
2023/06/18 11:59:38;;;;;;;;;;;;;;;29.17;24.94;97898.00;7369057;19;20668;-73
2023/06/18 12:02:10;;;;;;;;;;;;;;;28.94;25.24;97899.53;7374346;19;19953;-77
2023/06/18 12:04:37;;;;;;;;;;;;;;;29.09;22.69;97891.25;7368571;19;19923;-75
2023/06/18 12:07:03;;;;;;;;;;;;;;;29.19;24.45;97885.72;7373142;19;19933;-75
2023/06/18 12:09:33;;;;;;;;;;;;;;;29.14;22.86;97882.22;7367112;19;20321;-74
2023/06/18 12:12:12;;;;;;;;;;;;;;;29.29;22.67;97880.16;7370374;19;19926;-74
2023/06/18 12:14:57;;;;;;;;;;;;;;;29.47;23.28;97873.13;7369792;19;19923;-73
2023/06/18 12:17:29;;;;;;;;;;;;;;;29.57;23.84;97883.13;7376648;19;19919;-75
2023/06/18 12:20:01;;;;;;;;;;;;;;;29.44;24.40;97865.56;7376573;19;19914;-76
2023/06/18 12:22:27;;;;;;;;;;;;;;;29.40;25.99;97866.41;7370422;19;19918;-74
2023/06/18 12:24:54;;;;;;;;;;;;;;;29.32;27.42;97865.94;7368919;19;19949;-75
2023/06/18 12:27:24;;;;;;;;;;;;;;;29.37;24.65;97864.28;7371480;19;19941;-74
2023/06/18 12:29:51;;;;;;;;;;;;;;;29.53;24.13;97858.34;7368952;19;19922;-75
2023/06/18 12:32:18;;;;;;;;;;;;;;;29.48;26.14;97852.94;7372038;19;19918;-76
2023/06/18 12:34:45;;;;;;;;;;;;;;;29.56;23.90;97848.78;7378148;19;19923;-75
2023/06/18 12:37:12;;;;;;;;;;;;;;;29.64;23.95;97853.59;7387134;19;19923;-74
2023/06/18 12:39:38;;;;;;;;;;;;;;;29.90;22.32;97853.25;7376131;19;19915;-73
2023/06/18 12:42:09;;;;;;;;;;;;;;;30.00;24.46;97846.84;7372554;19;19926;-74
2023/06/18 12:44:38;;;;;;;;;;;;;;;29.92;23.74;97840.94;7366315;19;19915;-73
2023/06/18 12:47:05;;;;;;;;;;;;;;;29.78;23.83;97842.81;7374052;19;20010;-74
2023/06/18 12:49:38;;;;;;;;;;;;;;;29.81;23.26;97839.47;7370353;19;19918;-76
2023/06/18 12:52:13;;;;;;;;;;;;;;;30.09;23.24;97845.06;7373096;19;20869;-73